Time;durP1;ratioP1;P1;durP2;ratioP2;P2;SDS_P1;SDS_P2;PMS_P1;PMS_P2;Temp;Humidity;BMP_temperature;BMP_pressure;BME280_temperature;BME280_humidity;BME280_pressure;Samples;Min_cycle;Max_cycle;Signal;HPM_P1;HPM_P2
2023/02/14 00:00:42;;;;;;;41.83;19.20;;;;;;;;;;5059580;28;20221;-67
2023/02/14 00:03:07;;;;;;;37.80;19.17;;;;;;;;;;5051534;28;20224;-67
2023/02/14 00:05:33;;;;;;;39.00;18.83;;;;;;;;;;5049634;28;20217;-67
2023/02/14 00:07:58;;;;;;;35.27;18.27;;;;;;;;;;5065319;28;20193;-67
2023/02/14 00:10:24;;;;;;;35.80;18.40;;;;;;;;;;5060670;28;20200;-68
2023/02/14 00:12:49;;;;;;;39.63;19.63;;;;;;;;;;5054456;28;20655;-67
2023/02/14 00:15:24;;;;;;;40.70;19.07;;;;;;;;;;5054452;28;20189;-67
2023/02/14 00:17:54;;;;;;;42.50;20.37;;;;;;;;;;5052237;28;20275;-68
2023/02/14 00:20:23;;;;;;;35.20;17.30;;;;;;;;;;5050987;28;20245;-67
2023/02/14 00:22:48;;;;;;;39.43;18.13;;;;;;;;;;5051324;28;20188;-66
2023/02/14 00:25:14;;;;;;;36.57;18.00;;;;;;;;;;5054531;28;20642;-67
2023/02/14 00:27:40;;;;;;;35.17;17.83;;;;;;;;;;5051916;28;20189;-67
2023/02/14 00:30:07;;;;;;;32.50;16.70;;;;;;;;;;5049484;28;20208;-67
2023/02/14 00:32:32;;;;;;;33.30;17.00;;;;;;;;;;5051279;28;20243;-67
2023/02/14 00:34:58;;;;;;;34.93;16.80;;;;;;;;;;5064716;28;20670;-67
2023/02/14 00:37:23;;;;;;;30.50;16.13;;;;;;;;;;5048571;28;20320;-67
2023/02/14 00:39:49;;;;;;;35.90;17.47;;;;;;;;;;5052359;28;20651;-67
2023/02/14 00:42:15;;;;;;;34.70;17.10;;;;;;;;;;5055958;28;20192;-67
2023/02/14 00:44:41;;;;;;;37.87;17.53;;;;;;;;;;5047610;28;20514;-67
2023/02/14 00:47:06;;;;;;;36.73;17.93;;;;;;;;;;5054241;28;20177;-67
2023/02/14 00:49:31;;;;;;;36.83;17.67;;;;;;;;;;5054981;28;20576;-68
2023/02/14 00:51:57;;;;;;;35.87;18.13;;;;;;;;;;5066528;28;20192;-67
2023/02/14 00:54:22;;;;;;;35.27;17.83;;;;;;;;;;5047956;28;20188;-67
2023/02/14 00:56:47;;;;;;;36.03;17.70;;;;;;;;;;5059415;28;20271;-67
2023/02/14 00:59:13;;;;;;;36.37;17.70;;;;;;;;;;5057837;28;20189;-67
2023/02/14 01:01:39;;;;;;;40.93;18.70;;;;;;;;;;5054276;28;20224;-67
2023/02/14 01:04:04;;;;;;;39.93;18.90;;;;;;;;;;5048978;28;20702;-67
2023/02/14 01:06:30;;;;;;;37.53;17.73;;;;;;;;;;5058816;28;20192;-67
2023/02/14 01:08:55;;;;;;;35.17;16.37;;;;;;;;;;5046408;28;20189;-67
2023/02/14 01:11:22;;;;;;;34.97;16.37;;;;;;;;;;5056367;28;20201;-67
2023/02/14 01:13:49;;;;;;;29.63;15.77;;;;;;;;;;5051270;28;20220;-67
2023/02/14 01:16:19;;;;;;;29.30;14.97;;;;;;;;;;5060092;28;20593;-67
2023/02/14 01:18:45;;;;;;;33.93;16.87;;;;;;;;;;5054631;28;20207;-67
2023/02/14 01:21:16;;;;;;;33.47;16.87;;;;;;;;;;5055700;28;20232;-67
2023/02/14 01:23:42;;;;;;;34.17;15.83;;;;;;;;;;5064969;28;20240;-67
2023/02/14 01:26:09;;;;;;;29.60;15.20;;;;;;;;;;5053091;28;20201;-67
2023/02/14 01:28:34;;;;;;;32.50;16.07;;;;;;;;;;5066433;28;20211;-67
2023/02/14 01:31:15;;;;;;;30.63;16.43;;;;;;;;;;5050446;28;20193;-66
2023/02/14 01:33:42;;;;;;;31.40;15.87;;;;;;;;;;5058912;28;20193;-67
2023/02/14 01:36:15;;;;;;;36.90;17.60;;;;;;;;;;5060462;28;20670;-67
2023/02/14 01:38:40;;;;;;;33.10;15.73;;;;;;;;;;5052348;28;20308;-67
2023/02/14 01:41:05;;;;;;;34.23;16.70;;;;;;;;;;5054384;28;20280;-66
2023/02/14 01:43:31;;;;;;;28.90;14.77;;;;;;;;;;5058840;28;20536;-66
2023/02/14 01:45:56;;;;;;;31.77;16.20;;;;;;;;;;5054800;28;20234;-67
2023/02/14 01:48:23;;;;;;;33.23;14.97;;;;;;;;;;5059355;28;20207;-66
2023/02/14 01:50:51;;;;;;;28.87;14.27;;;;;;;;;;5062035;28;20188;-66
2023/02/14 01:53:23;;;;;;;27.60;13.87;;;;;;;;;;5064852;28;20651;-66
2023/02/14 01:55:53;;;;;;;24.90;13.47;;;;;;;;;;5054179;28;20229;-67
2023/02/14 01:58:26;;;;;;;27.93;14.23;;;;;;;;;;5054694;28;20200;-66
2023/02/14 02:00:57;;;;;;;30.67;15.03;;;;;;;;;;5055012;28;20353;-66
2023/02/14 02:03:36;;;;;;;28.57;15.03;;;;;;;;;;5067199;28;20197;-66
2023/02/14 02:06:16;;;;;;;23.47;13.60;;;;;;;;;;5055829;28;20267;-66
2023/02/14 02:08:51;;;;;;;27.17;14.87;;;;;;;;;;5056358;28;20201;-66
2023/02/14 02:11:16;;;;;;;30.40;14.73;;;;;;;;;;5048509;28;20188;-66
2023/02/14 02:13:42;;;;;;;29.57;15.30;;;;;;;;;;5061504;28;20688;-67
2023/02/14 02:16:24;;;;;;;35.30;16.43;;;;;;;;;;5055264;28;20211;-66
2023/02/14 02:19:19;;;;;;;32.53;15.20;;;;;;;;;;5051420;28;20193;-66
2023/02/14 02:22:22;;;;;;;28.67;14.73;;;;;;;;;;5057756;28;20201;-66
2023/02/14 02:25:25;;;;;;;34.67;16.10;;;;;;;;;;5056635;28;20598;-66
2023/02/14 02:28:28;;;;;;;37.13;17.77;;;;;;;;;;5057604;28;20193;-66
2023/02/14 02:31:41;;;;;;;34.30;15.97;;;;;;;;;;5062075;28;20222;-66
2023/02/14 02:34:31;;;;;;;33.10;15.80;;;;;;;;;;5044658;28;20201;-66
2023/02/14 02:37:08;;;;;;;35.07;16.10;;;;;;;;;;5060495;28;20203;-66
2023/02/14 02:39:47;;;;;;;37.13;17.30;;;;;;;;;;5059967;28;20192;-66
2023/02/14 02:42:30;;;;;;;32.53;16.53;;;;;;;;;;5063844;28;20331;-66
2023/02/14 02:45:21;;;;;;;37.43;17.83;;;;;;;;;;5058981;28;20217;-66
2023/02/14 02:48:08;;;;;;;36.57;17.13;;;;;;;;;;5053818;28;20198;-66
2023/02/14 02:53:44;;;;;;;36.97;17.07;;;;;;;;;;5048760;28;20216;-67
2023/02/14 02:59:19;;;;;;;32.97;17.03;;;;;;;;;;5055168;28;20224;-67
2023/02/14 03:02:04;;;;;;;32.87;16.60;;;;;;;;;;5065240;28;20226;-67
2023/02/14 03:07:35;;;;;;;32.73;16.77;;;;;;;;;;5052764;28;20247;-67
2023/02/14 03:10:16;;;;;;;32.60;16.53;;;;;;;;;;5060202;28;20543;-66
2023/02/14 03:13:08;;;;;;;36.70;18.20;;;;;;;;;;5049032;28;20189;-67
2023/02/14 03:16:16;;;;;;;37.47;17.73;;;;;;;;;;5053359;28;20185;-66
2023/02/14 03:18:54;;;;;;;37.00;17.13;;;;;;;;;;5053756;28;20218;-66
2023/02/14 03:21:32;;;;;;;37.07;18.17;;;;;;;;;;5055500;28;20194;-67
2023/02/14 03:24:33;;;;;;;41.30;19.23;;;;;;;;;;5059882;28;20232;-66
2023/02/14 03:27:09;;;;;;;36.93;18.40;;;;;;;;;;5060100;28;20297;-66
2023/02/14 03:30:04;;;;;;;37.83;19.10;;;;;;;;;;5060234;28;20207;-66
2023/02/14 03:32:34;;;;;;;38.80;18.50;;;;;;;;;;5051735;28;20197;-66
2023/02/14 03:35:24;;;;;;;43.77;19.07;;;;;;;;;;5058433;28;20737;-66
2023/02/14 03:38:26;;;;;;;39.23;19.17;;;;;;;;;;5058993;28;20231;-66
2023/02/14 03:41:02;;;;;;;36.70;18.10;;;;;;;;;;5051810;28;20248;-67
2023/02/14 03:43:50;;;;;;;41.83;19.13;;;;;;;;;;5049616;28;20577;-66
2023/02/14 03:46:23;;;;;;;42.60;19.07;;;;;;;;;;5054569;28;20185;-66
2023/02/14 03:48:52;;;;;;;37.63;18.87;;;;;;;;;;5057842;28;20606;-66
2023/02/14 03:51:19;;;;;;;41.93;19.73;;;;;;;;;;5058504;28;20269;-66
2023/02/14 03:53:48;;;;;;;38.77;20.00;;;;;;;;;;5058563;28;20272;-66
2023/02/14 03:56:40;;;;;;;41.03;19.47;;;;;;;;;;5046220;28;20335;-67
2023/02/14 03:59:35;;;;;;;43.60;20.17;;;;;;;;;;5048213;28;20668;-66
2023/02/14 04:02:25;;;;;;;43.23;19.33;;;;;;;;;;5064963;28;20204;-66
2023/02/14 04:04:52;;;;;;;42.90;18.37;;;;;;;;;;5052197;28;20274;-66
2023/02/14 04:07:20;;;;;;;40.33;19.37;;;;;;;;;;5060906;28;20185;-66
2023/02/14 04:09:45;;;;;;;39.63;18.90;;;;;;;;;;5056219;28;20193;-66
2023/02/14 04:12:11;;;;;;;41.30;19.70;;;;;;;;;;5065085;28;20325;-66
2023/02/14 04:14:37;;;;;;;43.23;19.90;;;;;;;;;;5065361;28;20671;-66
2023/02/14 04:19:47;;;;;;;37.33;17.80;;;;;;;;;;5054817;28;20197;-66
2023/02/14 04:22:12;;;;;;;41.07;19.60;;;;;;;;;;5053638;28;20573;-66
2023/02/14 04:24:38;;;;;;;43.30;19.73;;;;;;;;;;5059683;28;20375;-66
2023/02/14 04:27:09;;;;;;;38.93;19.63;;;;;;;;;;5059461;28;20287;-66
2023/02/14 04:29:46;;;;;;;40.00;19.00;;;;;;;;;;5049151;28;20189;-66
2023/02/14 04:32:14;;;;;;;38.57;18.97;;;;;;;;;;5051447;28;20204;-66
2023/02/14 04:34:40;;;;;;;41.13;19.30;;;;;;;;;;5054258;28;20218;-66
2023/02/14 04:37:06;;;;;;;43.53;20.30;;;;;;;;;;5049566;28;20247;-65
2023/02/14 04:39:32;;;;;;;42.67;20.23;;;;;;;;;;5046689;28;20208;-66
2023/02/14 04:41:57;;;;;;;43.23;21.30;;;;;;;;;;5048946;28;20605;-66
2023/02/14 04:44:23;;;;;;;43.93;20.20;;;;;;;;;;5050272;28;20209;-66
2023/02/14 04:46:48;;;;;;;42.67;19.80;;;;;;;;;;5052742;28;20207;-66
2023/02/14 04:49:14;;;;;;;41.67;18.87;;;;;;;;;;5054395;28;20192;-66
2023/02/14 04:51:40;;;;;;;37.27;18.53;;;;;;;;;;5054789;28;20193;-66
2023/02/14 04:54:06;;;;;;;40.33;18.50;;;;;;;;;;5052558;28;20181;-66
2023/02/14 04:56:31;;;;;;;39.77;18.60;;;;;;;;;;5052954;28;20192;-66
2023/02/14 04:58:56;;;;;;;33.77;17.60;;;;;;;;;;5058723;28;20560;-66
2023/02/14 05:01:22;;;;;;;42.43;19.07;;;;;;;;;;5052604;28;20213;-66
2023/02/14 05:03:48;;;;;;;39.13;18.37;;;;;;;;;;5055630;28;20676;-66
2023/02/14 05:06:13;;;;;;;39.83;17.97;;;;;;;;;;5060299;28;20189;-66
2023/02/14 05:08:39;;;;;;;36.90;18.87;;;;;;;;;;5050988;28;20553;-66
2023/02/14 05:11:04;;;;;;;46.67;20.50;;;;;;;;;;5056538;28;20680;-66
2023/02/14 05:13:30;;;;;;;43.13;19.93;;;;;;;;;;5055460;28;20193;-66
2023/02/14 05:15:57;;;;;;;44.10;19.53;;;;;;;;;;5069319;28;20668;-66
2023/02/14 05:18:22;;;;;;;48.90;20.30;;;;;;;;;;5059104;28;20197;-66
2023/02/14 05:20:52;;;;;;;38.40;17.83;;;;;;;;;;5052642;28;20672;-66
2023/02/14 05:23:19;;;;;;;38.43;17.23;;;;;;;;;;5053407;28;20248;-67
2023/02/14 05:25:47;;;;;;;44.17;18.47;;;;;;;;;;5051835;28;20747;-66
2023/02/14 05:28:12;;;;;;;38.40;18.13;;;;;;;;;;5057183;28;20203;-67
2023/02/14 05:30:37;;;;;;;41.17;18.07;;;;;;;;;;5049697;28;20190;-68
2023/02/14 05:33:03;;;;;;;42.27;19.23;;;;;;;;;;5050141;28;20189;-67
2023/02/14 05:35:28;;;;;;;39.03;18.80;;;;;;;;;;5052926;28;20240;-66
2023/02/14 05:37:54;;;;;;;37.87;18.57;;;;;;;;;;5051661;28;20194;-66
2023/02/14 05:40:20;;;;;;;36.67;17.90;;;;;;;;;;5053813;28;20259;-66
2023/02/14 05:42:45;;;;;;;38.10;17.80;;;;;;;;;;5058482;28;20233;-66
2023/02/14 05:45:11;;;;;;;40.47;19.13;;;;;;;;;;5058723;28;20212;-67
2023/02/14 05:47:37;;;;;;;41.80;17.80;;;;;;;;;;5052395;28;20189;-67
2023/02/14 05:50:03;;;;;;;42.67;18.43;;;;;;;;;;5067410;28;20223;-67
2023/02/14 05:52:29;;;;;;;38.67;17.77;;;;;;;;;;5064427;28;20767;-67
2023/02/14 05:54:54;;;;;;;41.30;19.33;;;;;;;;;;5061588;28;20268;-67
2023/02/14 05:57:20;;;;;;;38.10;17.27;;;;;;;;;;5054125;28;20208;-67
2023/02/14 05:59:45;;;;;;;44.87;18.67;;;;;;;;;;5052881;28;20269;-66
2023/02/14 06:02:10;;;;;;;34.87;17.07;;;;;;;;;;5056686;28;20667;-66
2023/02/14 06:04:36;;;;;;;39.73;18.00;;;;;;;;;;5063168;28;20244;-66
2023/02/14 06:07:02;;;;;;;37.13;18.50;;;;;;;;;;5052102;28;20196;-66
2023/02/14 06:09:27;;;;;;;39.50;18.83;;;;;;;;;;5055841;28;20316;-67
2023/02/14 06:11:53;;;;;;;35.90;17.10;;;;;;;;;;5048577;28;20300;-67
2023/02/14 06:14:18;;;;;;;34.03;16.87;;;;;;;;;;5052170;28;20719;-66
2023/02/14 06:16:43;;;;;;;34.37;16.00;;;;;;;;;;5049303;28;21315;-68
2023/02/14 06:19:09;;;;;;;34.83;16.73;;;;;;;;;;5052365;28;20655;-67
2023/02/14 06:21:34;;;;;;;33.57;16.17;;;;;;;;;;5050048;28;20185;-67
2023/02/14 06:24:00;;;;;;;36.23;17.30;;;;;;;;;;5058400;28;20217;-67
2023/02/14 06:26:28;;;;;;;32.40;16.63;;;;;;;;;;5058076;28;20244;-67
2023/02/14 06:28:54;;;;;;;34.83;16.90;;;;;;;;;;5058369;28;20310;-67
2023/02/14 06:31:20;;;;;;;30.47;16.33;;;;;;;;;;5049491;28;20197;-66
2023/02/14 06:33:45;;;;;;;31.00;16.30;;;;;;;;;;5048273;28;20585;-67
2023/02/14 06:36:11;;;;;;;30.73;16.47;;;;;;;;;;5053689;28;20685;-67
2023/02/14 06:38:36;;;;;;;28.70;15.57;;;;;;;;;;5054579;28;20193;-67
2023/02/14 06:41:03;;;;;;;30.90;17.00;;;;;;;;;;5057247;28;20195;-67
2023/02/14 06:43:29;;;;;;;27.27;16.17;;;;;;;;;;5057129;28;20185;-66
2023/02/14 06:45:54;;;;;;;28.27;15.20;;;;;;;;;;5051648;28;20264;-67
2023/02/14 06:48:20;;;;;;;29.33;16.17;;;;;;;;;;5055687;28;20464;-68
2023/02/14 06:50:46;;;;;;;27.83;14.83;;;;;;;;;;5054074;28;20188;-66
2023/02/14 06:53:11;;;;;;;25.63;15.37;;;;;;;;;;5050934;28;20597;-67
2023/02/14 06:55:37;;;;;;;26.17;15.90;;;;;;;;;;5050436;28;20263;-67
2023/02/14 06:58:02;;;;;;;27.47;13.73;;;;;;;;;;5049505;28;20300;-67
2023/02/14 07:00:28;;;;;;;26.13;14.57;;;;;;;;;;5045704;28;20255;-67
2023/02/14 07:02:53;;;;;;;26.13;14.67;;;;;;;;;;5049246;28;20715;-67
2023/02/14 07:05:19;;;;;;;24.53;13.80;;;;;;;;;;5061346;28;20582;-67
2023/02/14 07:07:44;;;;;;;26.87;14.43;;;;;;;;;;5055243;28;20268;-67
2023/02/14 07:10:10;;;;;;;24.50;13.57;;;;;;;;;;5054072;28;20200;-68
2023/02/14 07:12:38;;;;;;;25.40;14.80;;;;;;;;;;5053483;28;20217;-67
2023/02/14 07:15:07;;;;;;;26.53;14.40;;;;;;;;;;5049827;28;20277;-67
2023/02/14 07:17:32;;;;;;;28.23;14.57;;;;;;;;;;5048625;28;20205;-67
2023/02/14 07:19:58;;;;;;;23.53;14.10;;;;;;;;;;5048425;28;20534;-67
2023/02/14 07:22:23;;;;;;;31.03;15.77;;;;;;;;;;5051213;28;20188;-67
2023/02/14 07:24:48;;;;;;;31.43;16.47;;;;;;;;;;5054632;28;20229;-67
2023/02/14 07:27:14;;;;;;;31.73;16.40;;;;;;;;;;5057039;28;20217;-67
2023/02/14 07:29:39;;;;;;;31.03;16.13;;;;;;;;;;5047978;28;20205;-67
2023/02/14 07:32:05;;;;;;;34.60;15.90;;;;;;;;;;5049231;28;20181;-67
2023/02/14 07:34:30;;;;;;;27.07;15.37;;;;;;;;;;5065938;28;20185;-67
2023/02/14 07:36:56;;;;;;;30.37;15.73;;;;;;;;;;5050249;28;20189;-67
2023/02/14 07:39:21;;;;;;;30.23;16.30;;;;;;;;;;5050240;28;20193;-67
2023/02/14 07:41:46;;;;;;;30.73;16.67;;;;;;;;;;5055244;28;20197;-67
2023/02/14 07:44:12;;;;;;;26.53;15.80;;;;;;;;;;5059940;28;20216;-67
2023/02/14 07:46:37;;;;;;;31.50;16.20;;;;;;;;;;5062661;28;20197;-67
2023/02/14 07:49:02;;;;;;;31.50;17.23;;;;;;;;;;5062675;28;20184;-67
2023/02/14 07:51:28;;;;;;;28.67;16.20;;;;;;;;;;5053921;28;20509;-67
2023/02/14 07:53:56;;;;;;;28.73;16.50;;;;;;;;;;5053129;28;20196;-67
2023/02/14 07:56:21;;;;;;;32.43;16.57;;;;;;;;;;5053682;28;20192;-67
2023/02/14 07:58:48;;;;;;;28.57;16.57;;;;;;;;;;5047491;28;20204;-67
2023/02/14 08:01:14;;;;;;;33.63;18.17;;;;;;;;;;5061695;28;20927;-67
2023/02/14 08:03:40;;;;;;;35.23;18.03;;;;;;;;;;5066052;28;20199;-67
2023/02/14 08:06:05;;;;;;;32.13;17.83;;;;;;;;;;5061304;28;20186;-67
2023/02/14 08:08:31;;;;;;;36.13;19.67;;;;;;;;;;5046257;28;20220;-67
2023/02/14 08:10:57;;;;;;;33.93;18.93;;;;;;;;;;5048802;28;20181;-67
2023/02/14 08:13:23;;;;;;;38.67;21.13;;;;;;;;;;5049927;28;20197;-67
2023/02/14 08:16:04;;;;;;;43.60;21.20;;;;;;;;;;5052384;28;20245;-67
2023/02/14 08:18:34;;;;;;;37.87;19.93;;;;;;;;;;5049725;28;20189;-67
2023/02/14 08:21:00;;;;;;;40.00;21.43;;;;;;;;;;5052021;28;20240;-68
2023/02/14 08:23:26;;;;;;;43.57;22.07;;;;;;;;;;5050780;28;20628;-67
2023/02/14 08:25:51;;;;;;;41.20;21.43;;;;;;;;;;5045704;28;20296;-67
2023/02/14 08:28:18;;;;;;;42.77;21.87;;;;;;;;;;5048907;28;20620;-67
2023/02/14 08:30:43;;;;;;;50.77;23.43;;;;;;;;;;5048358;28;20652;-67
2023/02/14 08:33:09;;;;;;;48.67;24.40;;;;;;;;;;5049370;28;20196;-68
2023/02/14 08:35:35;;;;;;;51.53;24.30;;;;;;;;;;5049528;28;20177;-67
2023/02/14 08:38:00;;;;;;;49.30;24.70;;;;;;;;;;5048874;28;20192;-67
2023/02/14 08:40:27;;;;;;;54.50;25.70;;;;;;;;;;5052836;28;20287;-67
2023/02/14 08:42:52;;;;;;;56.93;27.37;;;;;;;;;;5047499;28;20194;-67
2023/02/14 08:45:18;;;;;;;64.83;27.77;;;;;;;;;;5046940;28;20205;-67
2023/02/14 08:47:43;;;;;;;51.93;27.00;;;;;;;;;;5047271;28;20277;-67
2023/02/14 08:50:13;;;;;;;56.83;28.50;;;;;;;;;;5049661;28;20260;-67
2023/02/14 08:52:40;;;;;;;59.90;30.30;;;;;;;;;;5049006;28;20193;-67
2023/02/14 08:55:06;;;;;;;66.53;33.23;;;;;;;;;;5049385;28;20652;-67
2023/02/14 08:57:31;;;;;;;68.77;34.00;;;;;;;;;;5050746;28;20193;-67
2023/02/14 08:59:57;;;;;;;78.60;36.73;;;;;;;;;;5047366;28;20601;-66
2023/02/14 09:02:22;;;;;;;78.73;38.63;;;;;;;;;;5055322;28;20231;-66
2023/02/14 09:04:48;;;;;;;79.03;38.30;;;;;;;;;;5050929;28;20209;-66
2023/02/14 09:07:13;;;;;;;77.33;37.83;;;;;;;;;;5047634;28;20596;-66
2023/02/14 09:09:39;;;;;;;80.10;39.13;;;;;;;;;;5048948;28;20707;-66
2023/02/14 09:12:07;;;;;;;80.23;37.70;;;;;;;;;;5051606;28;20267;-66
2023/02/14 09:14:37;;;;;;;78.70;40.00;;;;;;;;;;5050110;28;20715;-66
2023/02/14 09:17:04;;;;;;;85.57;41.90;;;;;;;;;;5049550;28;20201;-66
2023/02/14 09:19:34;;;;;;;78.50;38.53;;;;;;;;;;5049491;28;20517;-66
2023/02/14 09:22:02;;;;;;;82.93;39.50;;;;;;;;;;5045768;28;20204;-66
2023/02/14 09:24:28;;;;;;;74.80;37.30;;;;;;;;;;5048359;28;20253;-66
2023/02/14 09:26:56;;;;;;;78.07;38.10;;;;;;;;;;5048542;28;20306;-66
2023/02/14 09:29:21;;;;;;;74.07;37.50;;;;;;;;;;5052056;28;20190;-66
2023/02/14 09:31:47;;;;;;;74.33;37.80;;;;;;;;;;5045983;28;20200;-67
2023/02/14 09:34:12;;;;;;;69.07;35.50;;;;;;;;;;5054050;28;20188;-67
2023/02/14 09:39:22;;;;;;;63.60;34.47;;;;;;;;;;5050230;28;20563;-66
2023/02/14 09:42:02;;;;;;;56.67;33.43;;;;;;;;;;5052166;28;20185;-65
2023/02/14 09:44:50;;;;;;;63.07;34.47;;;;;;;;;;5052745;28;20239;-65
2023/02/14 09:47:38;;;;;;;57.13;33.23;;;;;;;;;;5049712;28;20196;-66
2023/02/14 09:50:16;;;;;;;57.47;31.87;;;;;;;;;;5053458;28;20186;-65
2023/02/14 09:52:43;;;;;;;51.43;29.83;;;;;;;;;;5051328;28;21333;-65
2023/02/14 09:55:14;;;;;;;53.20;29.10;;;;;;;;;;5052342;28;20190;-65
2023/02/14 09:57:57;;;;;;;48.63;28.17;;;;;;;;;;5050134;28;20197;-65
2023/02/14 10:00:37;;;;;;;48.70;26.03;;;;;;;;;;5057268;28;20673;-65
2023/02/14 10:03:12;;;;;;;42.67;25.43;;;;;;;;;;5050013;28;20656;-65
2023/02/14 10:05:47;;;;;;;41.67;25.33;;;;;;;;;;5051205;28;20223;-66
2023/02/14 10:08:32;;;;;;;36.90;22.37;;;;;;;;;;5048344;28;20195;-65
2023/02/14 10:11:20;;;;;;;36.90;22.30;;;;;;;;;;5055836;28;20673;-66
2023/02/14 10:14:03;;;;;;;44.63;21.67;;;;;;;;;;5050288;28;20185;-66
2023/02/14 10:16:51;;;;;;;35.83;21.47;;;;;;;;;;5054588;28;20285;-66
2023/02/14 10:19:27;;;;;;;38.50;21.53;;;;;;;;;;5054946;28;20271;-66
2023/02/14 10:21:56;;;;;;;40.38;21.73;;;;;;;;;;5056314;28;20254;-66
2023/02/14 10:24:44;;;;;;;36.27;20.33;;;;;;;;;;5056136;28;20282;-66
2023/02/14 10:27:36;;;;;;;32.27;19.97;;;;;;;;;;5064359;28;20613;-66
2023/02/14 10:30:09;;;;;;;33.40;20.03;;;;;;;;;;5054156;28;20200;-66
2023/02/14 10:32:57;;;;;;;31.90;19.73;;;;;;;;;;5051206;28;20554;-67
2023/02/14 10:35:25;;;;;;;33.42;21.38;;;;;;;;;;5050136;28;20194;-66
2023/02/14 10:37:51;;;;;;;35.72;20.90;;;;;;;;;;5053984;28;20602;-66
2023/02/14 10:40:25;;;;;;;34.33;20.42;;;;;;;;;;5066878;28;20201;-66
2023/02/14 10:43:18;;;;;;;35.47;19.63;;;;;;;;;;5059156;28;20219;-66
2023/02/14 10:46:00;;;;;;;33.08;19.42;;;;;;;;;;5053940;28;20300;-66
2023/02/14 10:48:44;;;;;;;35.35;21.10;;;;;;;;;;5048795;28;20189;-67
2023/02/14 10:51:29;;;;;;;36.00;19.77;;;;;;;;;;5048809;28;20208;-66
2023/02/14 10:54:30;;;;;;;35.93;19.80;;;;;;;;;;5054554;28;20188;-67
2023/02/14 10:57:00;;;;;;;38.83;21.93;;;;;;;;;;5050195;28;20181;-67
2023/02/14 10:59:52;;;;;;;36.00;21.23;;;;;;;;;;5052483;28;20204;-66
2023/02/14 11:02:22;;;;;;;35.97;20.88;;;;;;;;;;5048417;28;20269;-66
2023/02/14 11:04:48;;;;;;;32.45;20.35;;;;;;;;;;5052026;28;20632;-66
2023/02/14 11:07:16;;;;;;;33.80;19.90;;;;;;;;;;5052974;28;20532;-67
2023/02/14 11:09:41;;;;;;;36.45;20.35;;;;;;;;;;5052362;28;20217;-67
2023/02/14 11:12:07;;;;;;;36.20;20.65;;;;;;;;;;5055527;28;20220;-66
2023/02/14 11:14:35;;;;;;;34.67;20.00;;;;;;;;;;5061706;28;20194;-67
2023/02/14 11:17:30;;;;;;;33.15;20.13;;;;;;;;;;5061971;28;20689;-67
2023/02/14 11:20:01;;;;;;;35.22;20.77;;;;;;;;;;5052067;28;20712;-67
2023/02/14 11:22:31;;;;;;;37.10;22.35;;;;;;;;;;5051023;28;20189;-67
2023/02/14 11:25:05;;;;;;;35.15;21.20;;;;;;;;;;5047593;28;21340;-66
2023/02/14 11:27:31;;;;;;;33.55;20.73;;;;;;;;;;5047075;28;20254;-66
2023/02/14 11:29:58;;;;;;;37.80;22.23;;;;;;;;;;5047836;28;20194;-66
2023/02/14 11:32:27;;;;;;;36.10;21.33;;;;;;;;;;5049356;28;20273;-66
2023/02/14 11:34:56;;;;;;;36.75;21.58;;;;;;;;;;5047831;28;20185;-66
2023/02/14 11:37:22;;;;;;;40.58;22.98;;;;;;;;;;5050133;28;20243;-66
2023/02/14 11:39:49;;;;;;;36.53;22.20;;;;;;;;;;5049171;28;20548;-67
2023/02/14 11:42:37;;;;;;;33.65;21.60;;;;;;;;;;5047098;28;20208;-67
2023/02/14 11:45:04;;;;;;;40.05;21.67;;;;;;;;;;5047671;28;20323;-67
2023/02/14 11:47:40;;;;;;;38.03;21.92;;;;;;;;;;5048229;28;20186;-66
2023/02/14 11:50:27;;;;;;;36.80;21.83;;;;;;;;;;5061243;28;20189;-67
2023/02/14 11:52:55;;;;;;;37.95;22.73;;;;;;;;;;5058000;28;20224;-67
2023/02/14 11:55:31;;;;;;;43.80;22.83;;;;;;;;;;5048910;28;20306;-67
2023/02/14 11:57:58;;;;;;;38.22;23.45;;;;;;;;;;5048617;28;20191;-67
2023/02/14 12:00:29;;;;;;;39.03;23.00;;;;;;;;;;5047682;28;20296;-67
2023/02/14 12:02:57;;;;;;;39.42;22.55;;;;;;;;;;5050656;28;20190;-67
2023/02/14 12:05:30;;;;;;;41.90;23.38;;;;;;;;;;5053287;28;20657;-67
2023/02/14 12:08:02;;;;;;;40.85;23.98;;;;;;;;;;5047344;28;20211;-67
2023/02/14 12:10:34;;;;;;;39.17;22.65;;;;;;;;;;5051993;28;20278;-67
2023/02/14 12:13:21;;;;;;;36.42;22.90;;;;;;;;;;5049602;28;20273;-67
2023/02/14 12:15:55;;;;;;;40.50;23.63;;;;;;;;;;5049185;28;20182;-66
2023/02/14 12:18:41;;;;;;;42.17;24.35;;;;;;;;;;5046919;28;20197;-67
2023/02/14 12:21:19;;;;;;;40.38;23.20;;;;;;;;;;5051671;28;20212;-67
2023/02/14 12:23:54;;;;;;;38.80;23.52;;;;;;;;;;5046035;28;20645;-67
2023/02/14 12:26:35;;;;;;;43.83;24.10;;;;;;;;;;5050273;28;20199;-67
2023/02/14 12:29:25;;;;;;;44.75;24.48;;;;;;;;;;5046578;28;20185;-66
2023/02/14 12:31:51;;;;;;;40.13;23.67;;;;;;;;;;5047642;28;20223;-67
2023/02/14 12:34:18;;;;;;;38.30;23.25;;;;;;;;;;5049361;28;20185;-67
2023/02/14 12:37:17;;;;;;;43.03;25.98;;;;;;;;;;5047368;28;20637;-66
2023/02/14 12:40:19;;;;;;;43.38;24.35;;;;;;;;;;5049419;28;20189;-67
2023/02/14 12:42:59;;;;;;;38.92;23.17;;;;;;;;;;5046362;28;20193;-67
2023/02/14 12:46:12;;;;;;;40.60;23.90;;;;;;;;;;5047232;28;20304;-67
2023/02/14 12:48:59;;;;;;;40.08;24.42;;;;;;;;;;5046786;28;20276;-66
2023/02/14 12:51:25;;;;;;;45.90;24.20;;;;;;;;;;5049652;28;20225;-66
2023/02/14 12:54:33;;;;;;;42.65;24.33;;;;;;;;;;5047624;28;20217;-66
2023/02/14 12:57:23;;;;;;;42.55;24.63;;;;;;;;;;5047231;28;20261;-67
2023/02/14 13:00:13;;;;;;;45.00;25.42;;;;;;;;;;5048772;28;20241;-67
2023/02/14 13:03:16;;;;;;;41.72;25.48;;;;;;;;;;5046499;28;20255;-67
2023/02/14 13:05:41;;;;;;;46.08;25.27;;;;;;;;;;5046224;28;20537;-66
2023/02/14 13:08:12;;;;;;;43.42;25.45;;;;;;;;;;5066348;28;20738;-66
2023/02/14 13:11:04;;;;;;;40.72;23.63;;;;;;;;;;5056350;28;20333;-66
2023/02/14 13:13:37;;;;;;;39.65;23.90;;;;;;;;;;5067519;28;20204;-68
2023/02/14 13:16:17;;;;;;;38.33;23.13;;;;;;;;;;5051153;28;20197;-67
2023/02/14 13:18:52;;;;;;;42.03;25.10;;;;;;;;;;5049266;28;20193;-66
2023/02/14 13:21:23;;;;;;;41.30;23.95;;;;;;;;;;5049833;28;20249;-67
2023/02/14 13:23:53;;;;;;;46.88;24.83;;;;;;;;;;5048798;28;20238;-67
2023/02/14 13:26:35;;;;;;;36.75;23.05;;;;;;;;;;5048296;28;20609;-67
2023/02/14 13:29:19;;;;;;;39.50;23.45;;;;;;;;;;5055339;28;20641;-66
2023/02/14 13:31:45;;;;;;;40.75;24.20;;;;;;;;;;5061198;28;20317;-66
2023/02/14 13:34:24;;;;;;;38.47;23.67;;;;;;;;;;5054693;28;20189;-67
2023/02/14 13:36:50;;;;;;;40.63;23.67;;;;;;;;;;5050802;28;20189;-66
2023/02/14 13:39:31;;;;;;;41.67;24.75;;;;;;;;;;5053136;28;20596;-67
2023/02/14 13:41:57;;;;;;;41.65;24.85;;;;;;;;;;5061761;28;20194;-66
2023/02/14 13:44:55;;;;;;;38.78;23.48;;;;;;;;;;5057592;28;20617;-67
2023/02/14 13:47:23;;;;;;;41.60;23.73;;;;;;;;;;5055859;28;20697;-67
2023/02/14 13:49:58;;;;;;;42.03;23.50;;;;;;;;;;5059959;28;20537;-67
2023/02/14 13:52:45;;;;;;;43.97;24.75;;;;;;;;;;5048847;28;20615;-67
2023/02/14 13:55:21;;;;;;;38.03;23.27;;;;;;;;;;5052191;28;20253;-67
2023/02/14 13:58:01;;;;;;;37.50;22.52;;;;;;;;;;5051901;28;20259;-67
2023/02/14 14:00:42;;;;;;;38.72;21.88;;;;;;;;;;5061239;28;20208;-67
2023/02/14 14:03:31;;;;;;;37.53;22.50;;;;;;;;;;5061493;28;20660;-67
2023/02/14 14:06:01;;;;;;;35.25;21.88;;;;;;;;;;5061213;28;20221;-67
2023/02/14 14:08:28;;;;;;;39.42;22.13;;;;;;;;;;5048461;28;20611;-67
2023/02/14 14:10:56;;;;;;;37.80;23.20;;;;;;;;;;5050257;28;20247;-67
2023/02/14 14:13:40;;;;;;;36.03;23.00;;;;;;;;;;5052444;28;20781;-67
2023/02/14 14:16:33;;;;;;;44.95;23.55;;;;;;;;;;5049296;28;20265;-67
2023/02/14 14:19:08;;;;;;;40.83;23.50;;;;;;;;;;5052793;28;20197;-67
2023/02/14 14:21:36;;;;;;;35.05;21.98;;;;;;;;;;5050948;28;20211;-67
2023/02/14 14:24:18;;;;;;;36.63;24.05;;;;;;;;;;5048764;28;20229;-67
2023/02/14 14:27:05;;;;;;;39.55;23.17;;;;;;;;;;5052458;28;20200;-67
2023/02/14 14:29:39;;;;;;;34.55;21.92;;;;;;;;;;5051202;28;20659;-68
2023/02/14 14:32:17;;;;;;;35.78;23.00;;;;;;;;;;5051703;28;20555;-67
2023/02/14 14:34:49;;;;;;;43.08;24.02;;;;;;;;;;5049218;28;20567;-67
2023/02/14 14:37:17;;;;;;;38.13;23.00;;;;;;;;;;5048339;28;20235;-67
2023/02/14 14:39:49;;;;;;;36.50;23.40;;;;;;;;;;5047222;28;20189;-67
2023/02/14 14:42:16;;;;;;;35.03;22.55;;;;;;;;;;5048397;28;20197;-67
2023/02/14 14:45:00;;;;;;;35.28;21.10;;;;;;;;;;5057102;28;20701;-67
2023/02/14 14:47:39;;;;;;;35.88;21.35;;;;;;;;;;5048884;28;20189;-67
2023/02/14 14:50:13;;;;;;;36.00;21.38;;;;;;;;;;5047639;28;20244;-67
2023/02/14 14:52:42;;;;;;;36.28;21.63;;;;;;;;;;5053861;28;20189;-68
2023/02/14 14:55:18;;;;;;;36.50;22.27;;;;;;;;;;5052556;28;20260;-67
2023/02/14 14:57:49;;;;;;;35.85;21.92;;;;;;;;;;5053628;28;20193;-67
2023/02/14 15:00:22;;;;;;;36.38;22.05;;;;;;;;;;5055084;28;20578;-67